createdAt,value
2018-10-02T00:01:13.830Z,8.30
2018-10-02T00:03:42.090Z,8.30
2018-10-02T00:06:10.309Z,8.20
2018-10-02T00:08:38.493Z,8.30
2018-10-02T00:11:12.337Z,8.30
2018-10-02T00:13:46.073Z,8.30
2018-10-02T00:16:14.314Z,8.30
2018-10-02T00:18:42.505Z,8.30
2018-10-02T00:21:10.699Z,8.30
2018-10-02T00:23:38.907Z,8.20
2018-10-02T00:27:36.573Z,8.10
2018-10-02T00:30:04.915Z,8.10
2018-10-02T00:32:33.430Z,8.00
2018-10-02T00:35:01.631Z,7.90
2018-10-02T00:37:29.831Z,7.80
2018-10-02T00:41:27.539Z,7.60
2018-10-02T00:43:55.784Z,7.60
2018-10-02T00:46:23.973Z,7.50
2018-10-02T00:48:52.155Z,7.40
2018-10-02T00:51:20.343Z,7.30
2018-10-02T00:53:48.528Z,7.30
2018-10-02T00:56:16.751Z,7.30
2018-10-02T00:58:44.940Z,7.30
2018-10-02T01:01:13.127Z,7.30
2018-10-02T01:03:41.389Z,7.20
2018-10-02T01:06:09.551Z,7.20
2018-10-02T01:08:37.755Z,7.20
2018-10-02T01:11:06.015Z,7.20
2018-10-02T01:13:34.284Z,7.10
2018-10-02T01:16:02.494Z,7.00
2018-10-02T01:18:30.700Z,7.00
2018-10-02T01:20:58.901Z,7.00
2018-10-02T01:23:27.263Z,7.00
2018-10-02T01:25:55.450Z,7.00
2018-10-02T01:28:23.641Z,7.00
2018-10-02T01:30:51.826Z,7.00
2018-10-02T01:33:20.081Z,7.00
2018-10-02T01:35:48.254Z,7.00
2018-10-02T01:38:16.464Z,6.90
2018-10-02T01:40:44.683Z,6.90
2018-10-02T01:43:12.960Z,6.90
2018-10-02T01:45:41.146Z,7.00
2018-10-02T01:48:09.335Z,7.00
2018-10-02T01:50:37.541Z,7.00
2018-10-02T01:53:06.034Z,6.90
2018-10-02T01:55:34.251Z,6.90
2018-10-02T01:58:02.431Z,6.90
2018-10-02T02:00:30.611Z,6.90
2018-10-02T02:02:58.864Z,6.90
2018-10-02T02:05:27.083Z,6.90
2018-10-02T02:07:55.288Z,6.90
2018-10-02T02:10:23.471Z,7.00
2018-10-02T02:12:51.757Z,7.10
2018-10-02T02:15:19.923Z,7.10
2018-10-02T02:17:48.101Z,7.20
2018-10-02T02:20:16.291Z,7.20
2018-10-02T02:22:44.519Z,7.20
2018-10-02T02:25:12.720Z,7.30
2018-10-02T02:27:40.907Z,7.40
2018-10-02T02:30:09.092Z,7.40
2018-10-02T02:32:37.299Z,7.50
2018-10-02T02:35:05.504Z,7.50
2018-10-02T02:37:33.696Z,7.50
2018-10-02T02:40:01.905Z,7.60
2018-10-02T02:42:30.133Z,7.50
2018-10-02T02:44:58.364Z,7.50
2018-10-02T02:47:31.882Z,7.40
2018-10-02T02:50:05.487Z,7.40
2018-10-02T02:52:37.038Z,7.40
2018-10-02T02:55:05.753Z,7.40
2018-10-02T02:57:33.923Z,7.40
2018-10-02T03:00:02.139Z,7.40
2018-10-02T03:02:30.353Z,7.40
2018-10-02T03:04:58.628Z,7.50
2018-10-02T03:07:26.819Z,7.50
2018-10-02T03:09:55.034Z,7.50
2018-10-02T03:12:23.280Z,7.60
2018-10-02T03:14:51.451Z,7.60
2018-10-02T03:17:19.658Z,7.60
2018-10-02T03:19:47.868Z,7.60
2018-10-02T03:22:16.056Z,7.60
2018-10-02T03:24:44.216Z,7.70
2018-10-02T03:27:12.423Z,7.70
2018-10-02T03:29:40.612Z,7.80
2018-10-02T03:32:09.112Z,7.80
2018-10-02T03:34:37.516Z,7.80
2018-10-02T03:37:05.761Z,7.90
2018-10-02T03:39:34.075Z,7.90
2018-10-02T03:42:02.274Z,8.00
2018-10-02T03:44:30.557Z,8.00
2018-10-02T03:46:58.746Z,8.00
2018-10-02T03:49:26.948Z,8.00
2018-10-02T03:51:55.145Z,7.90
2018-10-02T03:54:23.364Z,7.90
2018-10-02T03:56:51.562Z,7.90
2018-10-02T03:59:19.747Z,7.80
2018-10-02T04:01:47.984Z,7.80
2018-10-02T04:04:16.192Z,7.70
2018-10-02T04:06:44.418Z,7.70
2018-10-02T04:09:12.633Z,7.70
2018-10-02T04:11:40.853Z,7.70
2018-10-02T04:14:09.225Z,7.70
2018-10-02T04:16:37.739Z,7.80
2018-10-02T04:19:06.140Z,7.80
2018-10-02T04:21:36.145Z,7.80
2018-10-02T04:24:05.776Z,7.80
2018-10-02T04:26:35.171Z,7.80
2018-10-02T04:29:03.974Z,7.80
2018-10-02T04:31:33.368Z,7.80
2018-10-02T04:34:01.555Z,7.80
2018-10-02T04:36:29.834Z,7.80
2018-10-02T04:38:58.025Z,7.90
2018-10-02T04:41:26.215Z,7.90
2018-10-02T04:43:54.404Z,7.90
2018-10-02T04:46:22.590Z,8.00
2018-10-02T04:48:50.760Z,8.00
2018-10-02T04:51:19.086Z,8.00
2018-10-02T04:53:47.359Z,8.00
2018-10-02T04:56:15.573Z,8.00
2018-10-02T04:58:43.737Z,8.00
2018-10-02T05:01:11.934Z,8.00
2018-10-02T05:03:40.142Z,8.00
2018-10-02T05:06:08.343Z,8.10
2018-10-02T05:08:36.541Z,8.10
2018-10-02T05:11:04.717Z,8.00
2018-10-02T05:13:32.897Z,8.00
2018-10-02T05:16:01.107Z,8.00
2018-10-02T05:18:29.303Z,8.10
2018-10-02T05:20:57.507Z,8.10
2018-10-02T05:23:25.708Z,8.10
2018-10-02T05:25:53.914Z,8.20
2018-10-02T05:28:22.091Z,8.20
2018-10-02T05:30:50.303Z,8.20
2018-10-02T05:33:18.497Z,8.30
2018-10-02T05:35:46.695Z,8.40
2018-10-02T05:38:14.898Z,8.40
2018-10-02T05:40:43.083Z,8.40
2018-10-02T05:43:11.275Z,8.50
2018-10-02T05:45:39.467Z,8.50
2018-10-02T05:48:07.697Z,8.50
2018-10-02T05:50:35.913Z,8.50
2018-10-02T05:53:04.094Z,8.50
2018-10-02T05:55:32.303Z,8.60
2018-10-02T05:58:00.535Z,8.60
2018-10-02T06:00:28.747Z,8.60
2018-10-02T06:02:57.009Z,8.60
2018-10-02T06:05:25.247Z,8.60
2018-10-02T06:07:53.439Z,8.70
2018-10-02T06:10:21.685Z,8.70
2018-10-02T06:12:49.944Z,8.80
2018-10-02T06:15:18.149Z,8.80
2018-10-02T06:17:46.347Z,8.90
2018-10-02T06:20:14.527Z,9.00
2018-10-02T06:22:42.817Z,9.10
2018-10-02T06:25:10.999Z,9.20
2018-10-02T06:27:39.209Z,9.30
2018-10-02T06:30:07.437Z,9.30
2018-10-02T06:32:35.658Z,9.30
2018-10-02T06:35:03.823Z,9.30
2018-10-02T06:37:32.030Z,9.40
2018-10-02T06:40:00.217Z,9.40
2018-10-02T06:42:28.398Z,9.50
2018-10-02T06:44:56.678Z,9.50
2018-10-02T06:47:24.835Z,9.60
2018-10-02T06:49:53.029Z,9.70
2018-10-02T06:52:21.488Z,9.70
2018-10-02T06:54:49.494Z,9.70
2018-10-02T06:57:17.698Z,9.70
2018-10-02T06:59:45.875Z,9.70
2018-10-02T07:02:14.081Z,9.80
2018-10-02T07:04:42.323Z,9.80
2018-10-02T07:07:10.533Z,9.80
2018-10-02T07:09:38.727Z,9.80
2018-10-02T07:12:06.920Z,9.80
2018-10-02T07:14:35.135Z,9.80
2018-10-02T07:17:03.353Z,9.90
2018-10-02T07:19:31.516Z,10.00
2018-10-02T07:21:59.747Z,10.10
2018-10-02T07:24:27.936Z,10.30
2018-10-02T07:26:56.297Z,10.50
2018-10-02T07:29:24.357Z,10.60
2018-10-02T07:31:52.602Z,10.70
2018-10-02T07:34:20.789Z,10.70
2018-10-02T07:36:49.015Z,10.80
2018-10-02T07:39:17.214Z,10.80
2018-10-02T07:41:45.446Z,10.80
2018-10-02T07:44:13.596Z,10.80
2018-10-02T07:46:41.797Z,10.80
2018-10-02T07:49:10.006Z,10.80
2018-10-02T07:51:38.222Z,10.70
2018-10-02T07:54:06.786Z,10.60
2018-10-02T07:56:35.036Z,10.60
2018-10-02T07:59:04.296Z,10.60
2018-10-02T08:01:32.500Z,10.60
2018-10-02T08:04:00.702Z,10.60
2018-10-02T08:06:29.015Z,10.60
2018-10-02T08:08:57.326Z,10.60
2018-10-02T08:11:25.462Z,10.70
2018-10-02T08:13:53.659Z,10.70
2018-10-02T08:16:21.851Z,10.70
2018-10-02T08:18:50.041Z,10.70
2018-10-02T08:21:18.345Z,10.70
2018-10-02T08:23:46.481Z,10.80
2018-10-02T08:26:14.701Z,10.90
2018-10-02T08:28:42.919Z,10.90
2018-10-02T08:31:11.117Z,11.00
2018-10-02T08:33:39.384Z,11.00
2018-10-02T08:36:07.862Z,11.00
2018-10-02T08:38:35.949Z,11.00
2018-10-02T08:41:04.101Z,11.00
2018-10-02T08:43:32.431Z,11.00
2018-10-02T08:46:00.496Z,10.90
2018-10-02T08:48:28.685Z,10.90
2018-10-02T08:50:56.979Z,10.80
2018-10-02T08:53:25.225Z,10.70
2018-10-02T08:55:53.487Z,10.70
2018-10-02T08:58:21.682Z,10.70
2018-10-02T09:00:49.959Z,10.70
2018-10-02T09:03:18.231Z,10.70
2018-10-02T09:05:46.396Z,10.70
2018-10-02T09:08:14.600Z,10.80
2018-10-02T09:10:42.793Z,10.80
2018-10-02T09:13:11.015Z,10.90
2018-10-02T09:15:39.277Z,10.90
2018-10-02T09:18:07.421Z,10.90
2018-10-02T09:20:35.678Z,10.90
2018-10-02T09:23:03.887Z,10.90
2018-10-02T09:25:32.081Z,10.90
2018-10-02T09:28:00.360Z,10.90
2018-10-02T09:30:33.965Z,10.90
2018-10-02T09:33:07.512Z,10.80
2018-10-02T09:35:41.115Z,10.80
2018-10-02T09:38:14.723Z,10.80
2018-10-02T09:40:48.275Z,10.80
2018-10-02T09:43:54.028Z,10.70
2018-10-02T09:46:22.905Z,10.70
2018-10-02T09:48:51.329Z,10.70
2018-10-02T09:51:19.501Z,10.70
2018-10-02T09:53:47.809Z,10.70
2018-10-02T09:56:16.033Z,10.70
2018-10-02T09:58:44.239Z,10.70
2018-10-02T10:01:17.797Z,10.80
2018-10-02T10:03:46.011Z,10.80
2018-10-02T10:06:14.219Z,10.90
2018-10-02T10:08:42.413Z,10.90
2018-10-02T10:11:10.785Z,10.90
2018-10-02T10:13:38.995Z,11.00
2018-10-02T10:16:07.271Z,11.00
2018-10-02T10:18:35.468Z,11.00
2018-10-02T10:21:03.737Z,11.00
2018-10-02T10:23:31.961Z,11.00
2018-10-02T10:26:00.167Z,11.00
2018-10-02T10:28:28.447Z,11.10
2018-10-02T10:30:56.610Z,11.20
2018-10-02T10:33:24.865Z,11.40
2018-10-02T10:35:53.015Z,11.50
2018-10-02T10:38:21.261Z,11.40
2018-10-02T10:40:49.511Z,11.40
2018-10-02T10:43:17.687Z,11.30
2018-10-02T10:45:45.909Z,11.30
2018-10-02T10:48:14.095Z,11.20
2018-10-02T10:50:42.309Z,11.20
2018-10-02T10:53:10.519Z,11.20
2018-10-02T10:55:39.373Z,11.10
2018-10-02T10:58:07.579Z,11.00
2018-10-02T11:00:35.769Z,10.90
2018-10-02T11:03:04.123Z,11.00
2018-10-02T11:05:32.265Z,11.00
2018-10-02T11:08:00.468Z,11.00
2018-10-02T11:10:28.643Z,11.00
2018-10-02T11:12:56.919Z,10.80
2018-10-02T11:15:27.219Z,10.80
2018-10-02T11:17:55.423Z,10.70
2018-10-02T11:20:26.713Z,10.60
2018-10-02T11:22:55.331Z,10.60
2018-10-02T11:25:23.620Z,10.60
2018-10-02T11:27:51.731Z,10.60
2018-10-02T11:30:19.923Z,10.60
2018-10-02T11:32:48.219Z,10.50
2018-10-02T11:35:16.434Z,10.40
2018-10-02T11:37:44.852Z,10.40
2018-10-02T11:40:13.005Z,10.30
2018-10-02T11:42:41.251Z,10.20
2018-10-02T11:45:09.462Z,10.20
2018-10-02T11:47:37.654Z,10.10
2018-10-02T11:50:05.896Z,10.10
2018-10-02T11:52:34.100Z,10.10
2018-10-02T11:55:02.298Z,10.10
2018-10-02T11:57:30.551Z,10.10
2018-10-02T11:59:58.672Z,10.10
2018-10-02T12:02:26.903Z,10.10
2018-10-02T12:04:55.114Z,10.10
2018-10-02T12:07:23.307Z,10.10
2018-10-02T12:09:51.511Z,10.00
2018-10-02T12:12:19.710Z,10.00
2018-10-02T12:14:47.960Z,10.00
2018-10-02T12:17:16.139Z,9.90
2018-10-02T12:19:44.483Z,9.90
2018-10-02T12:22:12.574Z,9.90
2018-10-02T12:24:40.778Z,9.90
2018-10-02T12:27:09.086Z,10.00
2018-10-02T12:29:37.301Z,10.00
2018-10-02T12:32:05.500Z,10.00
2018-10-02T12:34:33.714Z,10.00
2018-10-02T12:37:01.927Z,10.10
2018-10-02T12:39:30.147Z,10.10
2018-10-02T12:41:58.375Z,10.10
2018-10-02T12:44:26.630Z,10.10
2018-10-02T12:46:54.891Z,10.20
2018-10-02T12:49:23.026Z,10.20
2018-10-02T12:51:51.204Z,10.30
2018-10-02T12:54:19.476Z,10.40
2018-10-02T12:56:47.680Z,10.40
2018-10-02T12:59:15.918Z,10.40
2018-10-02T13:01:44.096Z,10.30
2018-10-02T13:04:12.308Z,10.30
2018-10-02T13:06:40.572Z,10.30
2018-10-02T13:09:09.345Z,10.30
2018-10-02T13:11:37.712Z,10.40
2018-10-02T13:14:05.909Z,10.40
2018-10-02T13:16:34.109Z,10.50
2018-10-02T13:19:02.324Z,10.50
2018-10-02T13:21:30.528Z,10.60
2018-10-02T13:23:58.914Z,10.60
2018-10-02T13:26:27.174Z,10.50
2018-10-02T13:28:55.360Z,10.50
2018-10-02T13:31:23.566Z,10.50
2018-10-02T13:33:51.790Z,10.50
2018-10-02T13:36:20.007Z,10.50
2018-10-02T13:38:48.210Z,10.50
2018-10-02T13:41:16.432Z,10.50
2018-10-02T13:43:44.647Z,10.60
2018-10-02T13:46:12.846Z,10.60
2018-10-02T13:48:41.058Z,10.60
2018-10-02T13:51:09.292Z,10.60
2018-10-02T13:53:37.511Z,10.60
2018-10-02T13:56:06.918Z,10.60
2018-10-02T13:58:35.110Z,10.60
2018-10-02T14:01:03.340Z,10.60
2018-10-02T14:03:31.531Z,10.60
2018-10-02T14:05:59.770Z,10.60
2018-10-02T14:08:27.969Z,10.60
2018-10-02T14:10:56.155Z,10.60
2018-10-02T14:13:24.671Z,10.50
2018-10-02T14:15:52.937Z,10.60
2018-10-02T14:18:21.119Z,10.60
2018-10-02T14:20:49.387Z,10.60
2018-10-02T14:23:17.591Z,10.60
2018-10-02T14:25:45.809Z,10.60
2018-10-02T14:28:14.047Z,10.70
2018-10-02T14:30:42.223Z,10.70
2018-10-02T14:33:10.409Z,10.70
2018-10-02T14:35:38.599Z,10.70
2018-10-02T14:38:06.861Z,10.70
2018-10-02T14:40:35.047Z,10.70
2018-10-02T14:43:03.338Z,10.80
2018-10-02T14:45:31.535Z,10.80
2018-10-02T14:48:03.371Z,10.80
2018-10-02T14:50:31.553Z,10.80
2018-10-02T14:52:59.820Z,10.90
2018-10-02T14:55:27.994Z,10.90
2018-10-02T14:57:56.198Z,10.90
2018-10-02T15:00:24.414Z,10.90
2018-10-02T15:02:52.919Z,10.80
2018-10-02T15:05:21.132Z,10.80
2018-10-02T15:07:49.321Z,10.80
2018-10-02T15:10:17.515Z,10.80
2018-10-02T15:12:45.817Z,10.80
2018-10-02T15:15:13.996Z,10.80
2018-10-02T15:17:42.222Z,10.80
2018-10-02T15:20:10.431Z,10.80
2018-10-02T15:22:38.765Z,10.80
2018-10-02T15:25:07.015Z,10.80
2018-10-02T15:27:36.077Z,10.90
2018-10-02T15:30:04.530Z,10.90
2018-10-02T15:32:32.710Z,10.90
2018-10-02T15:35:00.945Z,10.90
2018-10-02T15:37:29.171Z,11.00
2018-10-02T15:39:57.327Z,10.90
2018-10-02T15:42:25.711Z,11.00
2018-10-02T15:44:53.913Z,10.90
2018-10-02T15:47:22.120Z,10.90
2018-10-02T15:49:50.297Z,10.90
2018-10-02T15:52:18.509Z,10.90
2018-10-02T15:54:46.739Z,10.90
2018-10-02T15:57:14.943Z,10.90
2018-10-02T15:59:43.513Z,11.00
2018-10-02T16:02:11.750Z,10.90
2018-10-02T16:04:39.965Z,10.90
2018-10-02T16:07:08.172Z,11.00
2018-10-02T16:09:36.382Z,11.00
2018-10-02T16:12:04.594Z,11.10
2018-10-02T16:14:32.872Z,11.10
2018-10-02T16:17:01.128Z,11.10
2018-10-02T16:19:29.340Z,11.20
2018-10-02T16:21:58.540Z,11.20
2018-10-02T16:24:26.619Z,11.20
2018-10-02T16:26:54.854Z,11.20
2018-10-02T16:29:23.062Z,11.20
2018-10-02T16:31:51.305Z,11.20
2018-10-02T16:34:19.550Z,11.30
2018-10-02T16:36:47.756Z,11.30
2018-10-02T16:39:15.955Z,11.20
2018-10-02T16:41:44.160Z,11.20
2018-10-02T16:44:12.368Z,11.20
2018-10-02T16:46:40.601Z,11.30
2018-10-02T16:49:08.798Z,11.30
2018-10-02T16:51:37.031Z,11.20
2018-10-02T16:54:05.515Z,11.20
2018-10-02T16:56:33.734Z,11.20
2018-10-02T16:59:01.948Z,11.20
2018-10-02T17:01:30.148Z,11.20
2018-10-02T17:03:58.430Z,11.20
2018-10-02T17:06:26.579Z,11.10
2018-10-02T17:08:54.774Z,11.10
2018-10-02T17:11:22.990Z,11.10
2018-10-02T17:13:51.198Z,11.10
2018-10-02T17:16:19.407Z,11.10
2018-10-02T17:18:47.611Z,11.10
2018-10-02T17:21:15.844Z,11.10
2018-10-02T17:23:44.145Z,11.10
2018-10-02T17:26:12.340Z,11.10
2018-10-02T17:28:40.542Z,11.00
2018-10-02T17:31:08.706Z,11.10
2018-10-02T17:33:36.952Z,11.10
2018-10-02T17:36:05.249Z,11.10
2018-10-02T17:38:33.484Z,11.10
2018-10-02T17:41:01.682Z,11.20
2018-10-02T17:43:29.924Z,11.20
2018-10-02T17:45:58.133Z,11.20
2018-10-02T17:48:26.318Z,11.20
2018-10-02T17:50:54.518Z,11.30
2018-10-02T17:53:23.133Z,11.30
2018-10-02T17:55:51.318Z,11.30
2018-10-02T17:58:19.847Z,11.40
2018-10-02T18:00:48.076Z,11.40
2018-10-02T18:03:16.300Z,11.40
2018-10-02T18:05:44.550Z,11.40
2018-10-02T18:08:12.755Z,11.40
2018-10-02T18:10:40.995Z,11.40
2018-10-02T18:13:09.191Z,11.40
2018-10-02T18:15:37.556Z,11.50
2018-10-02T18:18:05.644Z,11.50
2018-10-02T18:20:33.894Z,11.50
2018-10-02T18:23:02.101Z,11.50
2018-10-02T18:25:30.386Z,11.50
2018-10-02T18:27:58.604Z,11.60
2018-10-02T18:30:26.792Z,11.60
2018-10-02T18:32:55.408Z,11.60
2018-10-02T18:35:23.602Z,11.60
2018-10-02T18:37:51.828Z,11.60
2018-10-02T18:40:20.044Z,11.60
2018-10-02T18:42:48.304Z,11.60
2018-10-02T18:45:16.520Z,11.60
2018-10-02T18:47:44.719Z,11.60
2018-10-02T18:50:12.936Z,11.60
2018-10-02T18:52:41.299Z,11.60
2018-10-02T18:55:09.898Z,11.60
2018-10-02T18:57:38.078Z,11.60
2018-10-02T19:00:06.349Z,11.60
2018-10-02T19:02:34.543Z,11.60
2018-10-02T19:05:02.764Z,11.60
2018-10-02T19:07:30.984Z,11.60
2018-10-02T19:09:59.245Z,11.60
2018-10-02T19:12:27.429Z,11.60
2018-10-02T19:14:55.645Z,11.50
2018-10-02T19:17:23.863Z,11.50
2018-10-02T19:19:57.468Z,11.40
2018-10-02T19:22:25.673Z,11.30
2018-10-02T19:24:53.901Z,11.30
2018-10-02T19:27:22.104Z,11.20
2018-10-02T19:29:55.649Z,11.20
2018-10-02T19:32:23.905Z,11.10
2018-10-02T19:34:52.109Z,11.10
2018-10-02T19:37:25.745Z,11.10
2018-10-02T19:39:53.949Z,11.00
2018-10-02T19:42:22.152Z,11.00
2018-10-02T19:44:50.379Z,10.90
2018-10-02T19:47:18.662Z,10.90
2018-10-02T19:49:46.803Z,10.90
2018-10-02T19:52:16.187Z,10.90
2018-10-02T19:54:45.087Z,10.90
2018-10-02T19:57:16.738Z,10.80
2018-10-02T19:59:44.965Z,10.80
2018-10-02T20:02:13.189Z,10.80
2018-10-02T20:04:41.389Z,10.80
2018-10-02T20:07:09.674Z,10.80
2018-10-02T20:09:37.803Z,10.90
2018-10-02T20:12:06.094Z,10.80
2018-10-02T20:14:34.291Z,10.80
2018-10-02T20:17:02.511Z,10.80
2018-10-02T20:19:30.733Z,10.80
2018-10-02T20:21:58.935Z,10.90
2018-10-02T20:24:27.142Z,10.90
2018-10-02T20:26:55.339Z,10.90
2018-10-02T20:29:23.539Z,11.00
2018-10-02T20:31:52.468Z,11.10
2018-10-02T20:34:20.736Z,11.20
2018-10-02T20:36:49.022Z,11.20
2018-10-02T20:39:17.171Z,11.30
2018-10-02T20:41:45.373Z,11.40
2018-10-02T20:44:13.679Z,11.40
2018-10-02T20:46:41.891Z,11.40
2018-10-02T20:49:10.136Z,11.50
2018-10-02T20:51:38.299Z,11.50
2018-10-02T20:54:06.523Z,11.50
2018-10-02T20:56:34.724Z,11.60
2018-10-02T20:59:02.921Z,11.60
2018-10-02T21:01:31.147Z,11.70
2018-10-02T21:03:59.392Z,11.70
2018-10-02T21:06:27.615Z,11.70
2018-10-02T21:08:55.834Z,11.60
2018-10-02T21:11:24.046Z,11.50
2018-10-02T21:13:52.337Z,11.40
2018-10-02T21:16:20.746Z,11.40
2018-10-02T21:18:48.945Z,11.40
2018-10-02T21:21:17.129Z,11.30
2018-10-02T21:23:45.327Z,11.30
2018-10-02T21:26:13.523Z,11.30
2018-10-02T21:28:41.732Z,11.30
2018-10-02T21:31:09.931Z,11.20
2018-10-02T21:33:38.181Z,11.20
2018-10-02T21:36:06.476Z,11.10
2018-10-02T21:38:34.680Z,11.10
2018-10-02T21:41:02.929Z,11.10
2018-10-02T21:43:31.178Z,11.10
2018-10-02T21:45:59.362Z,11.10
2018-10-02T21:48:27.821Z,11.10
2018-10-02T21:50:55.986Z,11.10
2018-10-02T21:53:24.260Z,11.10
2018-10-02T21:55:52.446Z,11.10
2018-10-02T21:58:20.653Z,11.10
2018-10-02T22:00:48.844Z,11.10
2018-10-02T22:03:17.130Z,11.10
2018-10-02T22:05:45.330Z,11.00
2018-10-02T22:08:13.545Z,11.00
2018-10-02T22:10:41.766Z,11.00
2018-10-02T22:13:10.066Z,10.90
2018-10-02T22:15:38.233Z,11.00
2018-10-02T22:18:06.447Z,10.90
2018-10-02T22:20:34.646Z,10.90
2018-10-02T22:23:02.845Z,11.00
2018-10-02T22:25:31.079Z,11.00
2018-10-02T22:27:59.282Z,11.10
2018-10-02T22:30:27.474Z,11.10
2018-10-02T22:32:55.762Z,11.20
2018-10-02T22:35:24.009Z,11.30
2018-10-02T22:37:52.537Z,11.40
2018-10-02T22:40:20.747Z,11.40
2018-10-02T22:42:48.984Z,11.50
2018-10-02T22:45:17.231Z,11.50
2018-10-02T22:47:45.440Z,11.50
2018-10-02T22:50:13.648Z,11.50
2018-10-02T22:52:41.919Z,11.50
2018-10-02T22:55:10.126Z,11.50
2018-10-02T22:57:38.352Z,11.60
2018-10-02T23:00:06.582Z,11.70
2018-10-02T23:02:34.791Z,11.70
2018-10-02T23:05:03.058Z,11.70
2018-10-02T23:07:31.420Z,11.60
2018-10-02T23:09:59.605Z,11.60
2018-10-02T23:12:27.793Z,11.60
2018-10-02T23:14:55.998Z,11.60
2018-10-02T23:17:24.216Z,11.50
2018-10-02T23:19:52.416Z,11.50
2018-10-02T23:22:20.613Z,11.50
2018-10-02T23:24:48.790Z,11.60
2018-10-02T23:27:17.024Z,11.60
2018-10-02T23:29:45.328Z,11.70
2018-10-02T23:32:13.528Z,11.70
2018-10-02T23:34:41.802Z,11.80
2018-10-02T23:37:10.084Z,11.80
2018-10-02T23:39:38.488Z,11.80
2018-10-02T23:42:06.710Z,11.90
2018-10-02T23:44:34.928Z,11.90
2018-10-02T23:47:03.126Z,11.90
2018-10-02T23:49:31.333Z,11.90
2018-10-02T23:51:59.546Z,11.90
2018-10-02T23:54:27.982Z,11.90
2018-10-02T23:56:56.206Z,11.80
2018-10-02T23:59:24.405Z,11.80
